Time;durP1;ratioP1;P1;durP2;ratioP2;P2;SDS_P1;SDS_P2;PMS_P1;PMS_P2;Temp;Humidity;BMP_temperature;BMP_pressure;BME280_temperature;BME280_humidity;BME280_pressure;Samples;Min_cycle;Max_cycle;Signal;HPM_P1;HPM_P2
2022/10/03 00:02:13;;;;;;;7.87;5.37;;;;;;;;;;5030828;28;20450;-75
2022/10/03 00:04:59;;;;;;;6.63;6.13;;;;;;;;;;5030328;28;20816;-77
2022/10/03 00:07:36;;;;;;;6.80;6.30;;;;;;;;;;5031313;28;20545;-74
2022/10/03 00:10:07;;;;;;;7.37;6.77;;;;;;;;;;5034485;28;20491;-75
2022/10/03 00:12:55;;;;;;;8.37;7.77;;;;;;;;;;5050080;28;20450;-75
2022/10/03 00:15:25;;;;;;;7.70;6.90;;;;;;;;;;5045601;28;20449;-76
2022/10/03 00:17:58;;;;;;;7.73;7.13;;;;;;;;;;5050765;28;20445;-75
2022/10/03 00:20:41;;;;;;;7.43;6.83;;;;;;;;;;5050911;28;20553;-76
2022/10/03 00:23:11;;;;;;;7.50;6.90;;;;;;;;;;5048191;28;20433;-75
2022/10/03 00:25:43;;;;;;;9.10;7.07;;;;;;;;;;5075731;28;20429;-76
2022/10/03 00:28:17;;;;;;;7.67;7.10;;;;;;;;;;5075318;28;20437;-75
2022/10/03 00:30:48;;;;;;;8.47;7.77;;;;;;;;;;5075857;28;20611;-76
2022/10/03 00:33:22;;;;;;;7.77;7.17;;;;;;;;;;5075381;28;20465;-75
2022/10/03 00:35:56;;;;;;;8.00;7.30;;;;;;;;;;5056204;28;20444;-75
2022/10/03 00:38:34;;;;;;;8.20;7.60;;;;;;;;;;5058255;28;20448;-76
2022/10/03 00:41:17;;;;;;;8.03;7.43;;;;;;;;;;5059589;28;20462;-75
2022/10/03 00:44:03;;;;;;;9.47;8.57;;;;;;;;;;5060792;28;20449;-75
2022/10/03 00:46:44;;;;;;;9.43;8.70;;;;;;;;;;5062350;28;20473;-75
2022/10/03 00:49:28;;;;;;;8.50;7.80;;;;;;;;;;5066999;28;20491;-75
2022/10/03 00:52:06;;;;;;;9.90;9.00;;;;;;;;;;5060264;28;20477;-76
2022/10/03 00:54:45;;;;;;;10.53;9.43;;;;;;;;;;5063530;28;20450;-75
2022/10/03 00:57:22;;;;;;;9.30;8.50;;;;;;;;;;5060319;28;20442;-75
2022/10/03 01:00:05;;;;;;;10.63;9.53;;;;;;;;;;5059598;28;20461;-75
2022/10/03 01:02:41;;;;;;;10.00;9.10;;;;;;;;;;5051013;28;20462;-75
2022/10/03 01:05:15;;;;;;;9.90;9.00;;;;;;;;;;5062771;28;20448;-75
2022/10/03 01:07:52;;;;;;;9.53;8.57;;;;;;;;;;5051612;28;20453;-75
2022/10/03 01:10:22;;;;;;;10.10;9.30;;;;;;;;;;5051744;28;20481;-76
2022/10/03 01:12:58;;;;;;;10.20;9.30;;;;;;;;;;5053525;28;20442;-76
2022/10/03 01:15:29;;;;;;;10.20;9.30;;;;;;;;;;5057509;28;20452;-76
2022/10/03 01:18:04;;;;;;;9.70;8.90;;;;;;;;;;5062513;28;20438;-76
2022/10/03 01:20:36;;;;;;;11.37;10.30;;;;;;;;;;5048862;28;20462;-75
2022/10/03 01:23:21;;;;;;;11.90;10.60;;;;;;;;;;5049916;28;20429;-75
2022/10/03 01:25:51;;;;;;;11.10;10.10;;;;;;;;;;5050870;28;20429;-75
2022/10/03 01:31:12;;;;;;;11.37;10.33;;;;;;;;;;5050210;28;20566;-75
2022/10/03 01:33:42;;;;;;;11.63;10.43;;;;;;;;;;5049684;28;20449;-75
2022/10/03 01:36:13;;;;;;;11.00;9.90;;;;;;;;;;5050498;28;20453;-76
2022/10/03 01:38:43;;;;;;;13.77;10.10;;;;;;;;;;5049786;28;20441;-76
2022/10/03 01:41:12;;;;;;;10.47;9.47;;;;;;;;;;5049714;28;20449;-76
2022/10/03 01:43:45;;;;;;;11.30;10.10;;;;;;;;;;5049077;28;20452;-76
2022/10/03 01:46:16;;;;;;;12.30;11.20;;;;;;;;;;5049602;28;20460;-76
2022/10/03 01:48:46;;;;;;;10.97;9.87;;;;;;;;;;5049368;28;20537;-75
2022/10/03 01:51:16;;;;;;;10.80;9.70;;;;;;;;;;5049540;28;20482;-75
2022/10/03 01:53:58;;;;;;;10.90;10.00;;;;;;;;;;5052081;28;20472;-75
2022/10/03 01:56:29;;;;;;;13.50;11.03;;;;;;;;;;5051186;28;20449;-76
2022/10/03 01:59:01;;;;;;;11.93;10.70;;;;;;;;;;5053328;28;20456;-76
2022/10/03 02:01:32;;;;;;;14.57;11.60;;;;;;;;;;5053005;28;20437;-76
2022/10/03 02:04:04;;;;;;;12.23;11.13;;;;;;;;;;5052588;28;20799;-76
2022/10/03 02:06:36;;;;;;;12.97;11.77;;;;;;;;;;5053126;28;20484;-75
2022/10/03 02:09:05;;;;;;;13.10;11.80;;;;;;;;;;5052809;28;20465;-75
2022/10/03 02:11:36;;;;;;;13.90;12.70;;;;;;;;;;5052858;28;20976;-76
2022/10/03 02:14:16;;;;;;;12.40;11.30;;;;;;;;;;5054251;28;20449;-75
2022/10/03 02:16:44;;;;;;;17.70;14.03;;;;;;;;;;5056538;28;20448;-75
2022/10/03 02:19:20;;;;;;;15.10;13.50;;;;;;;;;;5055307;28;20945;-75
2022/10/03 02:21:48;;;;;;;14.80;13.40;;;;;;;;;;5052641;28;20448;-74
2022/10/03 02:24:28;;;;;;;17.13;14.80;;;;;;;;;;5051962;28;20449;-75
2022/10/03 02:27:13;;;;;;;17.37;13.03;;;;;;;;;;5052734;28;20816;-75
2022/10/03 02:29:52;;;;;;;15.43;13.83;;;;;;;;;;5052558;28;20472;-76
2022/10/03 02:32:34;;;;;;;15.53;14.03;;;;;;;;;;5053067;28;20484;-75
2022/10/03 02:35:14;;;;;;;16.43;14.50;;;;;;;;;;5052714;28;20441;-76
2022/10/03 02:38:06;;;;;;;15.63;14.00;;;;;;;;;;5057204;28;20453;-76
2022/10/03 02:41:04;;;;;;;14.77;13.30;;;;;;;;;;5015984;28;20463;-75
2022/10/03 02:43:42;;;;;;;16.30;12.60;;;;;;;;;;5011164;28;20474;-76
2022/10/03 02:46:39;;;;;;;14.70;13.20;;;;;;;;;;5047599;28;20453;-74
2022/10/03 02:49:25;;;;;;;15.70;12.30;;;;;;;;;;5053853;28;20465;-77
2022/10/03 02:52:00;;;;;;;17.23;13.67;;;;;;;;;;5052238;28;20481;-75
2022/10/03 02:54:48;;;;;;;14.20;12.90;;;;;;;;;;5051688;28;20899;-75
2022/10/03 02:57:26;;;;;;;14.57;12.43;;;;;;;;;;5048669;28;20445;-75
2022/10/03 03:00:09;;;;;;;15.07;13.57;;;;;;;;;;5052119;28;20465;-75
2022/10/03 03:02:54;;;;;;;14.20;12.77;;;;;;;;;;5049729;28;20449;-75
2022/10/03 03:05:30;;;;;;;16.77;14.27;;;;;;;;;;5050601;28;20525;-75
2022/10/03 03:08:16;;;;;;;16.57;13.97;;;;;;;;;;5051586;28;20537;-75
2022/10/03 03:10:57;;;;;;;14.23;12.77;;;;;;;;;;5044454;28;20577;-75
2022/10/03 03:13:39;;;;;;;16.10;14.50;;;;;;;;;;5051378;28;20448;-76
2022/10/03 03:16:31;;;;;;;15.50;13.90;;;;;;;;;;5051570;28;20464;-76
2022/10/03 03:19:08;;;;;;;15.93;13.70;;;;;;;;;;5051444;28;20450;-75
2022/10/03 03:21:41;;;;;;;13.47;12.17;;;;;;;;;;5051463;28;20456;-76
2022/10/03 03:24:23;;;;;;;14.43;13.03;;;;;;;;;;5051724;28;20434;-75
2022/10/03 03:26:56;;;;;;;16.03;12.23;;;;;;;;;;5068115;28;20425;-77
2022/10/03 03:29:29;;;;;;;15.53;13.23;;;;;;;;;;5078705;28;20557;-76
2022/10/03 03:32:02;;;;;;;17.03;11.50;;;;;;;;;;5078568;28;20473;-75
2022/10/03 03:34:32;;;;;;;13.93;12.13;;;;;;;;;;5073544;28;20427;-76
2022/10/03 03:37:03;;;;;;;13.57;12.30;;;;;;;;;;5052195;28;20450;-76
2022/10/03 03:39:38;;;;;;;13.13;11.83;;;;;;;;;;5051580;28;20973;-75
2022/10/03 03:42:13;;;;;;;12.40;11.30;;;;;;;;;;5051477;28;20490;-76
2022/10/03 03:44:58;;;;;;;13.00;11.23;;;;;;;;;;5050976;28;20434;-76
2022/10/03 03:47:31;;;;;;;15.43;12.73;;;;;;;;;;5069009;28;20410;-75
2022/10/03 03:50:13;;;;;;;13.10;11.90;;;;;;;;;;5077768;28;20470;-76
2022/10/03 03:52:51;;;;;;;12.87;11.70;;;;;;;;;;5076477;28;20472;-74
2022/10/03 03:55:34;;;;;;;20.77;13.37;;;;;;;;;;5078425;28;20410;-74
2022/10/03 03:58:08;;;;;;;14.20;12.63;;;;;;;;;;5064196;28;20445;-75
2022/10/03 04:00:42;;;;;;;14.40;12.90;;;;;;;;;;5051605;28;20856;-76
2022/10/03 04:03:15;;;;;;;13.70;12.40;;;;;;;;;;5050837;28;20450;-75
2022/10/03 04:05:51;;;;;;;13.80;12.07;;;;;;;;;;5051035;28;20453;-75
2022/10/03 04:08:32;;;;;;;15.77;12.90;;;;;;;;;;5050756;28;20468;-75
2022/10/03 04:11:06;;;;;;;12.80;11.60;;;;;;;;;;5050670;28;20484;-76
2022/10/03 04:13:39;;;;;;;18.80;13.10;;;;;;;;;;5050085;28;20457;-76
2022/10/03 04:16:15;;;;;;;14.57;12.47;;;;;;;;;;5050424;28;20456;-75
2022/10/03 04:18:56;;;;;;;13.00;11.70;;;;;;;;;;5050718;28;20467;-76
2022/10/03 04:21:33;;;;;;;14.17;11.40;;;;;;;;;;5050561;28;20430;-75
2022/10/03 04:24:20;;;;;;;13.10;10.43;;;;;;;;;;5049824;28;20429;-75
2022/10/03 04:26:58;;;;;;;14.00;10.40;;;;;;;;;;5049959;28;20449;-75
2022/10/03 04:29:42;;;;;;;11.93;10.93;;;;;;;;;;5050425;28;20461;-75
2022/10/03 04:32:15;;;;;;;13.13;11.70;;;;;;;;;;5050299;28;20958;-76
2022/10/03 04:34:49;;;;;;;11.50;10.33;;;;;;;;;;5049586;28;20433;-75
2022/10/03 04:37:23;;;;;;;11.27;10.07;;;;;;;;;;5050241;28;20440;-75
2022/10/03 04:39:57;;;;;;;11.67;9.90;;;;;;;;;;5049997;28;20934;-75
2022/10/03 04:42:29;;;;;;;11.60;10.50;;;;;;;;;;5050442;28;21251;-75
2022/10/03 04:45:02;;;;;;;11.73;10.53;;;;;;;;;;5050442;28;20449;-75
2022/10/03 04:47:32;;;;;;;12.80;11.57;;;;;;;;;;5050543;28;20445;-74
2022/10/03 04:50:05;;;;;;;11.73;10.67;;;;;;;;;;5046109;28;20485;-74
2022/10/03 04:52:38;;;;;;;11.50;10.30;;;;;;;;;;5041518;28;20488;-75
2022/10/03 04:55:15;;;;;;;11.70;10.33;;;;;;;;;;5030961;28;20446;-75
2022/10/03 04:57:45;;;;;;;13.13;10.73;;;;;;;;;;5030421;28;20454;-75
2022/10/03 05:00:22;;;;;;;12.90;11.70;;;;;;;;;;5030580;28;20485;-75
2022/10/03 05:02:51;;;;;;;12.57;11.23;;;;;;;;;;5029813;28;20442;-75
2022/10/03 05:05:26;;;;;;;15.80;11.43;;;;;;;;;;5030139;28;20982;-75
2022/10/03 05:07:58;;;;;;;15.27;12.10;;;;;;;;;;5030445;28;20485;-76
2022/10/03 05:10:41;;;;;;;14.03;11.67;;;;;;;;;;5030265;28;20469;-75
2022/10/03 05:13:15;;;;;;;13.63;11.23;;;;;;;;;;5046818;28;20997;-76
2022/10/03 05:15:49;;;;;;;14.03;11.30;;;;;;;;;;5050282;28;20452;-75
2022/10/03 05:18:19;;;;;;;14.30;12.17;;;;;;;;;;5050488;28;20971;-75
2022/10/03 05:20:50;;;;;;;13.50;11.10;;;;;;;;;;5051104;28;20457;-76
2022/10/03 05:23:25;;;;;;;13.70;11.70;;;;;;;;;;5050728;28;20908;-76
2022/10/03 05:25:57;;;;;;;16.20;12.90;;;;;;;;;;5050911;28;20448;-75
2022/10/03 05:28:35;;;;;;;13.77;12.10;;;;;;;;;;5052956;28;20979;-75
2022/10/03 05:31:05;;;;;;;15.57;12.47;;;;;;;;;;5054589;28;20477;-76
2022/10/03 05:33:38;;;;;;;18.07;14.57;;;;;;;;;;5063569;28;20459;-75
2022/10/03 05:36:10;;;;;;;22.03;14.40;;;;;;;;;;5053871;28;20475;-75
2022/10/03 05:39:00;;;;;;;17.60;14.17;;;;;;;;;;5053335;28;20467;-76
2022/10/03 05:41:28;;;;;;;16.47;14.10;;;;;;;;;;5053618;28;20441;-76
2022/10/03 05:44:02;;;;;;;22.70;14.47;;;;;;;;;;5052860;28;20453;-75
2022/10/03 05:46:39;;;;;;;18.67;14.20;;;;;;;;;;5053276;28;20448;-75
2022/10/03 05:49:17;;;;;;;17.80;14.00;;;;;;;;;;5053314;28;20473;-75
2022/10/03 05:51:49;;;;;;;19.43;15.07;;;;;;;;;;5053338;28;20477;-75
2022/10/03 05:54:28;;;;;;;19.80;16.00;;;;;;;;;;5052649;28;20445;-75
2022/10/03 05:57:06;;;;;;;21.20;16.23;;;;;;;;;;5053208;28;20432;-76
2022/10/03 05:59:52;;;;;;;20.20;16.70;;;;;;;;;;5052904;28;20494;-75
2022/10/03 06:02:31;;;;;;;24.83;17.53;;;;;;;;;;5052939;28;20448;-75
2022/10/03 06:05:16;;;;;;;21.13;17.90;;;;;;;;;;5052835;28;20438;-76
2022/10/03 06:07:48;;;;;;;20.93;17.30;;;;;;;;;;5053071;28;20460;-76
2022/10/03 06:10:24;;;;;;;20.57;16.77;;;;;;;;;;5053164;28;20509;-75
2022/10/03 06:12:56;;;;;;;27.00;18.40;;;;;;;;;;5075014;28;20513;-74
2022/10/03 06:15:42;;;;;;;26.23;17.50;;;;;;;;;;5079923;28;20406;-75
2022/10/03 06:18:23;;;;;;;21.93;16.97;;;;;;;;;;5079625;28;20517;-76
2022/10/03 06:21:08;;;;;;;22.10;17.00;;;;;;;;;;5069180;28;20465;-75
2022/10/03 06:23:57;;;;;;;25.60;18.27;;;;;;;;;;5052062;28;20445;-76
2022/10/03 06:26:37;;;;;;;27.40;18.17;;;;;;;;;;5045052;28;20472;-75
2022/10/03 06:29:23;;;;;;;21.77;17.37;;;;;;;;;;5032910;28;20470;-75
2022/10/03 06:32:18;;;;;;;20.87;17.03;;;;;;;;;;5032431;28;21051;-76
2022/10/03 06:34:53;;;;;;;22.67;18.40;;;;;;;;;;5032175;28;20430;-76
2022/10/03 06:37:37;;;;;;;22.53;17.47;;;;;;;;;;5032588;28;20469;-76
2022/10/03 06:40:13;;;;;;;24.23;17.80;;;;;;;;;;5032078;28;20462;-75
2022/10/03 06:42:57;;;;;;;20.37;17.13;;;;;;;;;;5031573;28;20441;-75
2022/10/03 06:45:40;;;;;;;21.70;18.43;;;;;;;;;;5032139;28;20446;-75
2022/10/03 06:48:21;;;;;;;19.27;16.20;;;;;;;;;;5032131;28;20446;-76
2022/10/03 06:51:05;;;;;;;19.50;17.40;;;;;;;;;;5029517;28;20470;-76
2022/10/03 06:53:45;;;;;;;17.67;15.77;;;;;;;;;;5031360;28;20485;-76
2022/10/03 06:56:30;;;;;;;25.00;17.83;;;;;;;;;;5031731;28;20445;-75
2022/10/03 06:59:19;;;;;;;18.57;16.57;;;;;;;;;;5031956;28;20442;-75
2022/10/03 07:02:16;;;;;;;20.23;16.20;;;;;;;;;;5032409;28;20488;-76
2022/10/03 07:05:01;;;;;;;23.63;16.50;;;;;;;;;;5038814;28;20449;-77
2022/10/03 07:07:43;;;;;;;24.83;18.00;;;;;;;;;;5069835;28;20438;-75
2022/10/03 07:10:17;;;;;;;19.90;16.30;;;;;;;;;;5058074;28;20489;-76
2022/10/03 07:12:57;;;;;;;21.13;16.67;;;;;;;;;;5073795;28;20465;-76
2022/10/03 07:15:43;;;;;;;20.57;18.20;;;;;;;;;;5078357;28;20417;-75
2022/10/03 07:18:25;;;;;;;22.57;16.73;;;;;;;;;;5058538;28;20449;-75
2022/10/03 07:21:05;;;;;;;19.00;14.90;;;;;;;;;;5052799;28;20473;-75
2022/10/03 07:23:48;;;;;;;19.97;15.10;;;;;;;;;;5051856;28;20446;-75
2022/10/03 07:26:29;;;;;;;20.37;15.90;;;;;;;;;;5051568;28;20457;-75
2022/10/03 07:29:08;;;;;;;20.10;14.90;;;;;;;;;;5051355;28;20808;-75
2022/10/03 07:31:43;;;;;;;20.33;15.10;;;;;;;;;;5051462;28;20445;-74
2022/10/03 07:34:27;;;;;;;28.20;16.90;;;;;;;;;;5050535;28;20441;-75
2022/10/03 07:40:02;;;;;;;20.10;15.60;;;;;;;;;;5050926;28;20452;-75
2022/10/03 07:42:37;;;;;;;18.93;16.00;;;;;;;;;;5050948;28;20441;-76
2022/10/03 07:45:22;;;;;;;22.47;15.57;;;;;;;;;;5051043;28;20549;-75
2022/10/03 07:48:08;;;;;;;24.17;17.20;;;;;;;;;;5050307;28;20450;-76
2022/10/03 07:50:57;;;;;;;24.33;16.73;;;;;;;;;;5050555;28;20536;-76
2022/10/03 07:53:35;;;;;;;21.97;17.93;;;;;;;;;;5050081;28;20526;-75
2022/10/03 07:56:10;;;;;;;20.47;16.10;;;;;;;;;;5051038;28;20441;-77
2022/10/03 07:58:51;;;;;;;15.40;13.80;;;;;;;;;;5050606;28;21119;-75
2022/10/03 08:01:29;;;;;;;16.43;13.23;;;;;;;;;;5050462;28;20975;-75
2022/10/03 08:04:11;;;;;;;22.27;14.60;;;;;;;;;;5037283;28;20429;-75
2022/10/03 08:06:42;;;;;;;20.90;15.30;;;;;;;;;;5044895;28;21035;-76
2022/10/03 08:09:32;;;;;;;20.07;14.47;;;;;;;;;;5046514;28;20487;-75
2022/10/03 08:12:13;;;;;;;17.57;14.13;;;;;;;;;;5046649;28;20438;-76
2022/10/03 08:14:47;;;;;;;22.03;14.67;;;;;;;;;;5048840;28;20437;-76
2022/10/03 08:17:25;;;;;;;20.50;14.60;;;;;;;;;;5048359;28;20441;-76
2022/10/03 08:20:01;;;;;;;16.70;13.83;;;;;;;;;;5050384;28;20465;-75
2022/10/03 08:22:36;;;;;;;14.13;12.63;;;;;;;;;;5034073;28;20442;-76
2022/10/03 08:25:13;;;;;;;14.03;11.43;;;;;;;;;;5030421;28;20905;-75
2022/10/03 08:27:55;;;;;;;13.07;11.87;;;;;;;;;;5030686;28;20474;-76
2022/10/03 08:30:25;;;;;;;15.43;11.83;;;;;;;;;;4997355;28;20541;-76
2022/10/03 08:32:59;;;;;;;14.80;11.30;;;;;;;;;;5029616;28;20573;-76
2022/10/03 08:35:34;;;;;;;12.80;11.43;;;;;;;;;;5030272;28;20472;-75
2022/10/03 08:38:11;;;;;;;13.33;11.03;;;;;;;;;;5030512;28;20441;-76
2022/10/03 08:40:58;;;;;;;13.10;11.77;;;;;;;;;;5030513;28;20466;-75
2022/10/03 08:43:45;;;;;;;13.50;10.90;;;;;;;;;;5030234;28;20435;-76
2022/10/03 08:46:25;;;;;;;13.87;10.03;;;;;;;;;;5030619;28;20442;-76
2022/10/03 08:48:56;;;;;;;13.90;9.30;;;;;;;;;;5029983;28;20446;-76
2022/10/03 08:51:51;;;;;;;11.80;9.87;;;;;;;;;;5030150;28;20457;-76
2022/10/03 08:54:49;;;;;;;17.00;11.57;;;;;;;;;;5034296;28;20845;-75
2022/10/03 08:57:22;;;;;;;17.40;12.77;;;;;;;;;;4987860;28;20454;-75
2022/10/03 09:00:07;;;;;;;11.63;10.30;;;;;;;;;;5026917;28;20462;-77
2022/10/03 09:03:01;;;;;;;12.23;10.80;;;;;;;;;;5063351;28;20430;-77
2022/10/03 09:05:45;;;;;;;13.10;11.70;;;;;;;;;;5081095;28;20434;-76
2022/10/03 09:08:31;;;;;;;13.90;11.50;;;;;;;;;;5070886;28;20474;-77
2022/10/03 09:11:27;;;;;;;19.30;11.40;;;;;;;;;;5045879;28;20457;-76
2022/10/03 09:14:10;;;;;;;13.83;11.50;;;;;;;;;;5053244;28;20465;-76
2022/10/03 09:16:56;;;;;;;14.23;9.33;;;;;;;;;;5053513;28;20453;-75
2022/10/03 09:19:36;;;;;;;13.53;9.87;;;;;;;;;;5052995;28;20524;-75
2022/10/03 09:22:12;;;;;;;14.23;10.47;;;;;;;;;;5046172;28;20508;-75
2022/10/03 09:25:00;;;;;;;11.30;9.93;;;;;;;;;;5053428;28;20536;-75
2022/10/03 09:27:35;;;;;;;11.03;9.73;;;;;;;;;;5053759;28;20449;-76
2022/10/03 09:30:09;;;;;;;15.70;9.40;;;;;;;;;;5053959;28;20468;-76
2022/10/03 09:33:06;;;;;;;10.60;8.93;;;;;;;;;;5053053;28;21114;-76
2022/10/03 09:35:51;;;;;;;9.57;8.43;;;;;;;;;;5051774;28;20510;-76
2022/10/03 09:38:37;;;;;;;10.23;8.40;;;;;;;;;;5053069;28;20463;-76
2022/10/03 09:41:22;;;;;;;12.90;8.80;;;;;;;;;;5046029;28;20468;-76
2022/10/03 09:44:10;;;;;;;10.63;8.40;;;;;;;;;;5033536;28;21149;-76
2022/10/03 09:47:21;;;;;;;10.83;9.57;;;;;;;;;;5029918;28;20447;-76
2022/10/03 09:49:48;;;;;;;11.63;7.43;;;;;;;;;;5033219;28;20458;-76
2022/10/03 09:52:27;;;;;;;8.57;7.00;;;;;;;;;;5031822;28;20545;-77
2022/10/03 09:55:06;;;;;;;8.10;7.00;;;;;;;;;;5047322;28;20878;-75
2022/10/03 09:57:43;;;;;;;8.23;7.00;;;;;;;;;;5049613;28;20438;-77
2022/10/03 10:00:26;;;;;;;9.10;7.33;;;;;;;;;;5046891;28;20480;-76
2022/10/03 10:03:09;;;;;;;8.40;5.70;;;;;;;;;;5052823;28;20787;-76
2022/10/03 10:05:57;;;;;;;8.40;5.73;;;;;;;;;;5053111;28;20441;-77
2022/10/03 10:08:38;;;;;;;7.63;5.37;;;;;;;;;;5049497;28;20472;-76
2022/10/03 10:11:19;;;;;;;11.53;5.67;;;;;;;;;;5052685;28;20465;-77
2022/10/03 10:14:05;;;;;;;10.17;5.80;;;;;;;;;;5050432;28;20826;-76
2022/10/03 10:16:49;;;;;;;9.70;4.80;;;;;;;;;;5051838;28;20450;-76
2022/10/03 10:19:34;;;;;;;7.13;4.97;;;;;;;;;;5051636;28;20488;-75
2022/10/03 10:22:31;;;;;;;6.00;5.30;;;;;;;;;;5044552;28;20457;-75
2022/10/03 10:25:21;;;;;;;7.87;5.70;;;;;;;;;;5009484;28;20448;-75
2022/10/03 10:28:06;;;;;;;6.73;5.90;;;;;;;;;;5045009;28;20809;-76
2022/10/03 10:30:43;;;;;;;9.40;5.43;;;;;;;;;;5052501;28;20798;-76
2022/10/03 10:33:28;;;;;;;5.80;4.87;;;;;;;;;;5052590;28;20470;-76
2022/10/03 10:36:08;;;;;;;8.00;5.30;;;;;;;;;;5051546;28;20445;-75
2022/10/03 10:38:39;;;;;;;7.20;5.47;;;;;;;;;;5049653;28;20437;-77
2022/10/03 10:41:20;;;;;;;6.53;5.70;;;;;;;;;;5043354;28;20473;-75
2022/10/03 10:44:02;;;;;;;9.30;5.50;;;;;;;;;;5051845;28;20444;-75
2022/10/03 10:46:47;;;;;;;7.30;5.63;;;;;;;;;;5051064;28;20452;-75
2022/10/03 10:49:37;;;;;;;7.30;5.23;;;;;;;;;;5046513;28;20520;-76
2022/10/03 10:52:23;;;;;;;9.10;5.30;;;;;;;;;;5052250;28;20456;-76
2022/10/03 10:55:08;;;;;;;6.73;6.03;;;;;;;;;;5051635;28;20480;-76
2022/10/03 10:57:54;;;;;;;8.73;5.80;;;;;;;;;;5049827;28;20441;-76
2022/10/03 11:00:26;;;;;;;10.20;5.50;;;;;;;;;;5061210;28;20465;-76
2022/10/03 11:03:12;;;;;;;6.67;5.90;;;;;;;;;;5063039;28;20434;-75
2022/10/03 11:06:10;;;;;;;8.93;5.60;;;;;;;;;;5048720;28;20449;-75
2022/10/03 11:08:53;;;;;;;7.47;5.70;;;;;;;;;;5036979;28;20505;-75
2022/10/03 11:11:40;;;;;;;10.03;6.07;;;;;;;;;;5048833;28;20441;-75
2022/10/03 11:14:23;;;;;;;7.43;6.10;;;;;;;;;;5051270;28;20477;-75
2022/10/03 11:17:09;;;;;;;6.63;5.63;;;;;;;;;;5050206;28;20548;-75
2022/10/03 11:19:54;;;;;;;14.50;12.70;;;;;;;;;;5051856;28;20625;-75
2022/10/03 11:22:44;;;;;;;37.20;28.13;;;;;;;;;;5043150;28;20441;-75
2022/10/03 11:25:30;;;;;;;22.07;16.90;;;;;;;;;;5031215;28;20427;-76
2022/10/03 11:28:16;;;;;;;13.40;10.97;;;;;;;;;;5031623;28;20472;-77
2022/10/03 11:30:53;;;;;;;8.00;5.90;;;;;;;;;;5031295;28;20458;-76
2022/10/03 11:33:47;;;;;;;7.60;6.20;;;;;;;;;;5035167;28;20477;-76
2022/10/03 11:36:23;;;;;;;8.93;5.90;;;;;;;;;;5044283;28;20537;-76
2022/10/03 11:38:57;;;;;;;8.23;6.23;;;;;;;;;;5040420;28;20438;-75
2022/10/03 11:41:32;;;;;;;10.90;5.60;;;;;;;;;;5031002;28;21001;-76
2022/10/03 11:44:14;;;;;;;11.13;5.73;;;;;;;;;;5031002;28;20488;-75
2022/10/03 11:46:50;;;;;;;5.80;4.50;;;;;;;;;;5031353;28;20435;-75
2022/10/03 11:49:27;;;;;;;11.87;5.77;;;;;;;;;;5031077;28;20877;-76
2022/10/03 11:51:57;;;;;;;6.70;5.23;;;;;;;;;;5038376;28;20457;-76
2022/10/03 11:54:27;;;;;;;7.10;4.83;;;;;;;;;;5042736;28;20480;-77
2022/10/03 11:56:56;;;;;;;6.13;5.10;;;;;;;;;;5039590;28;20438;-76
2022/10/03 11:59:36;;;;;;;4.67;4.13;;;;;;;;;;5031173;28;20474;-75
2022/10/03 12:02:18;;;;;;;6.57;3.93;;;;;;;;;;5031062;28;20803;-76
2022/10/03 12:04:51;;;;;;;7.47;4.20;;;;;;;;;;5028725;28;20465;-76
2022/10/03 12:10:18;;;;;;;6.00;4.13;;;;;;;;;;5030784;28;20429;-75
2022/10/03 12:12:46;;;;;;;21.03;16.40;;;;;;;;;;5030453;28;20452;-77
2022/10/03 12:15:20;;;;;;;5.70;4.20;;;;;;;;;;5030976;28;20570;-75
2022/10/03 12:17:51;;;;;;;6.20;3.43;;;;;;;;;;5030330;28;20824;-75
2022/10/03 12:20:21;;;;;;;6.57;5.90;;;;;;;;;;5030434;28;20473;-75
2022/10/03 12:22:52;;;;;;;7.17;3.40;;;;;;;;;;5029817;28;20446;-75
2022/10/03 12:25:22;;;;;;;5.60;3.60;;;;;;;;;;5030750;28;20442;-75
2022/10/03 12:27:56;;;;;;;7.03;3.73;;;;;;;;;;5036814;28;20445;-75
2022/10/03 12:30:29;;;;;;;4.70;3.43;;;;;;;;;;5050440;28;20476;-75
2022/10/03 12:33:04;;;;;;;8.73;3.70;;;;;;;;;;5049429;28;20445;-76
2022/10/03 12:35:36;;;;;;;14.80;12.37;;;;;;;;;;5050371;28;20848;-75
2022/10/03 12:38:10;;;;;;;4.33;3.93;;;;;;;;;;5050584;28;20456;-74
2022/10/03 12:40:42;;;;;;;8.47;7.57;;;;;;;;;;5050480;28;20458;-76
2022/10/03 12:43:16;;;;;;;16.80;14.43;;;;;;;;;;5049664;28;20450;-74
2022/10/03 12:45:48;;;;;;;6.07;3.90;;;;;;;;;;5050575;28;20433;-75
2022/10/03 12:48:44;;;;;;;12.10;6.70;;;;;;;;;;5051024;28;20441;-76
2022/10/03 12:51:17;;;;;;;5.10;4.00;;;;;;;;;;5016324;28;20833;-75
2022/10/03 12:53:49;;;;;;;4.57;4.17;;;;;;;;;;5050701;28;20500;-76
2022/10/03 12:56:21;;;;;;;5.97;3.83;;;;;;;;;;5053514;28;20449;-75
2022/10/03 12:58:59;;;;;;;6.63;4.30;;;;;;;;;;5055865;28;20461;-75
2022/10/03 13:01:30;;;;;;;8.13;5.00;;;;;;;;;;5060717;28;21037;-75
2022/10/03 13:03:59;;;;;;;6.53;4.00;;;;;;;;;;5063412;28;20453;-75
2022/10/03 13:06:35;;;;;;;5.83;3.50;;;;;;;;;;5063255;28;20452;-76
2022/10/03 13:09:15;;;;;;;4.87;3.60;;;;;;;;;;5055076;28;20484;-76
2022/10/03 13:11:47;;;;;;;6.07;4.67;;;;;;;;;;5065485;28;20440;-75
2022/10/03 13:14:22;;;;;;;5.03;4.23;;;;;;;;;;5061813;28;20536;-74
2022/10/03 13:16:58;;;;;;;4.50;3.63;;;;;;;;;;5062398;28;20452;-75
2022/10/03 13:19:27;;;;;;;3.20;3.00;;;;;;;;;;5062211;28;20473;-75
2022/10/03 13:22:02;;;;;;;5.40;3.70;;;;;;;;;;5061021;28;20442;-76
2022/10/03 13:24:33;;;;;;;4.63;3.70;;;;;;;;;;5060134;28;20809;-75
2022/10/03 13:27:09;;;;;;;3.53;3.23;;;;;;;;;;5051452;28;20952;-76
2022/10/03 13:29:41;;;;;;;4.57;2.80;;;;;;;;;;5048575;28;20473;-75
2022/10/03 13:32:26;;;;;;;6.00;4.77;;;;;;;;;;5048705;28;20540;-75
2022/10/03 13:35:57;;;;;;;6.93;3.43;;;;;;;;;;5047706;28;20488;-75
2022/10/03 13:37:57;;;;;;;3.43;3.10;;;;;;;;;;5047603;28;20442;-75
2022/10/03 13:40:28;;;;;;;3.90;3.53;;;;;;;;;;5048417;28;20493;-76
2022/10/03 13:42:56;;;;;;;4.93;3.20;;;;;;;;;;5047696;28;20460;-75
2022/10/03 13:45:26;;;;;;;6.83;3.53;;;;;;;;;;5048221;28;20438;-75
2022/10/03 13:47:54;;;;;;;7.47;3.40;;;;;;;;;;5047829;28;20453;-76
2022/10/03 13:50:23;;;;;;;3.33;3.03;;;;;;;;;;5051842;28;20544;-75
2022/10/03 13:52:54;;;;;;;6.30;3.47;;;;;;;;;;5052056;28;20457;-76
2022/10/03 13:55:25;;;;;;;5.43;3.20;;;;;;;;;;5051122;28;21028;-76
2022/10/03 13:58:06;;;;;;;8.90;3.03;;;;;;;;;;5051741;28;20437;-75
2022/10/03 14:00:36;;;;;;;7.40;3.23;;;;;;;;;;5051566;28;20475;-76
2022/10/03 14:03:12;;;;;;;3.43;2.83;;;;;;;;;;5050829;28;20468;-76
2022/10/03 14:05:50;;;;;;;3.20;2.60;;;;;;;;;;5051415;28;20449;-76
2022/10/03 14:08:25;;;;;;;3.87;2.83;;;;;;;;;;5051274;28;20512;-75
2022/10/03 14:11:02;;;;;;;4.13;2.77;;;;;;;;;;5050534;28;20464;-77
2022/10/03 14:13:34;;;;;;;7.23;3.27;;;;;;;;;;5030975;28;20450;-76
2022/10/03 14:16:07;;;;;;;3.30;2.80;;;;;;;;;;5031108;28;20493;-75
2022/10/03 14:18:40;;;;;;;3.93;2.77;;;;;;;;;;5030628;28;20501;-75
2022/10/03 14:21:22;;;;;;;4.63;2.50;;;;;;;;;;5030833;28;20470;-76
2022/10/03 14:23:51;;;;;;;5.63;2.97;;;;;;;;;;5021478;28;20461;-76
2022/10/03 14:26:21;;;;;;;8.47;6.50;;;;;;;;;;5030568;28;20446;-76
2022/10/03 14:28:52;;;;;;;3.73;3.30;;;;;;;;;;5030999;28;20438;-75
2022/10/03 14:31:23;;;;;;;3.57;2.70;;;;;;;;;;5030576;28;20951;-76
2022/10/03 14:33:53;;;;;;;4.37;3.00;;;;;;;;;;5029773;28;20969;-76
2022/10/03 14:36:25;;;;;;;7.10;2.90;;;;;;;;;;5030784;28;20847;-75
2022/10/03 14:39:00;;;;;;;4.07;2.77;;;;;;;;;;5030994;28;20454;-76
2022/10/03 14:41:30;;;;;;;3.20;2.47;;;;;;;;;;5030695;28;20535;-76
2022/10/03 14:44:00;;;;;;;3.23;2.87;;;;;;;;;;5029872;28;20447;-75
2022/10/03 14:46:28;;;;;;;5.17;2.87;;;;;;;;;;5030633;28;20454;-75
2022/10/03 14:48:57;;;;;;;12.10;6.30;;;;;;;;;;5030753;28;20451;-76
2022/10/03 14:51:27;;;;;;;4.93;3.60;;;;;;;;;;5031050;28;20466;-76
2022/10/03 14:53:56;;;;;;;5.60;3.27;;;;;;;;;;5029889;28;20454;-75
2022/10/03 14:56:24;;;;;;;5.10;3.93;;;;;;;;;;5030224;28;20446;-75
2022/10/03 14:58:52;;;;;;;4.83;3.10;;;;;;;;;;5030169;28;20493;-75
2022/10/03 15:01:22;;;;;;;7.70;3.17;;;;;;;;;;5029232;28;20446;-75
2022/10/03 15:03:57;;;;;;;7.03;3.17;;;;;;;;;;5031307;28;20459;-75
2022/10/03 15:06:35;;;;;;;3.37;2.73;;;;;;;;;;5032363;28;20450;-75
2022/10/03 15:09:04;;;;;;;5.93;2.77;;;;;;;;;;5032770;28;20549;-75
2022/10/03 15:11:32;;;;;;;4.73;3.10;;;;;;;;;;5037527;28;20441;-75
2022/10/03 15:14:02;;;;;;;4.03;2.70;;;;;;;;;;5051350;28;20448;-75
2022/10/03 15:16:33;;;;;;;7.27;4.40;;;;;;;;;;5052032;28;20434;-75
2022/10/03 15:19:02;;;;;;;4.30;3.03;;;;;;;;;;5051724;28;20540;-75
2022/10/03 15:21:29;;;;;;;4.60;2.80;;;;;;;;;;5051783;28;20453;-76
2022/10/03 15:23:58;;;;;;;3.93;3.13;;;;;;;;;;5050995;28;20968;-75
2022/10/03 15:26:27;;;;;;;3.13;2.33;;;;;;;;;;5051795;28;20442;-76
2022/10/03 15:28:56;;;;;;;7.03;3.00;;;;;;;;;;5052168;28;20450;-75
2022/10/03 15:31:30;;;;;;;4.93;2.83;;;;;;;;;;5052026;28;20437;-76
2022/10/03 15:33:59;;;;;;;4.40;3.27;;;;;;;;;;5051238;28;20876;-75
2022/10/03 15:36:28;;;;;;;4.20;3.20;;;;;;;;;;5051471;28;20473;-75
2022/10/03 15:38:58;;;;;;;5.60;3.67;;;;;;;;;;5052733;28;20865;-74